createdAt,value
2019-04-07T00:01:05.266Z,98870.55
2019-04-07T00:02:09.935Z,98873.27
2019-04-07T00:03:14.107Z,98872.69
2019-04-07T00:04:20.379Z,98869.88
2019-04-07T00:05:24.583Z,98877.14
2019-04-07T00:06:29.455Z,98871.86
2019-04-07T00:07:33.633Z,98877.72
2019-04-07T00:08:38.837Z,98873.02
2019-04-07T00:09:43.660Z,98874.18
2019-04-07T00:10:48.569Z,98878.14
2019-04-07T00:11:55.172Z,98870.30
2019-04-07T00:12:59.605Z,98873.94
2019-04-07T00:14:04.504Z,98872.28
2019-04-07T00:15:08.819Z,98874.27
2019-04-07T00:16:13.490Z,98880.70
2019-04-07T00:17:17.913Z,98879.60
2019-04-07T00:18:22.411Z,98874.08
2019-04-07T00:19:27.157Z,98878.29
2019-04-07T00:20:32.729Z,98879.78
2019-04-07T00:21:36.906Z,98873.67
2019-04-07T00:22:41.250Z,98875.16
2019-04-07T00:23:45.420Z,98872.74
2019-04-07T00:24:49.799Z,98865.37
2019-04-07T00:25:54.125Z,98874.20
2019-04-07T00:26:59.090Z,98879.56
2019-04-07T00:28:04.091Z,98874.78
2019-04-07T00:29:08.710Z,98868.92
2019-04-07T00:30:15.570Z,98875.94
2019-04-07T00:31:20.529Z,98877.59
2019-04-07T00:32:25.002Z,98882.95
2019-04-07T00:33:29.118Z,98879.23
2019-04-07T00:34:33.358Z,98875.94
2019-04-07T00:35:37.790Z,98884.02
2019-04-07T00:36:42.079Z,98877.59
2019-04-07T00:37:46.745Z,98886.00
2019-04-07T00:38:51.539Z,98887.83
2019-04-07T00:39:55.833Z,98887.33
2019-04-07T00:41:00.171Z,98894.34
2019-04-07T00:42:05.368Z,98888.73
2019-04-07T00:43:09.975Z,98891.02
2019-04-07T00:44:14.671Z,98893.82
2019-04-07T00:45:19.111Z,98880.45
2019-04-07T00:46:24.320Z,98890.03
2019-04-07T00:47:28.607Z,98891.19
2019-04-07T00:48:33.319Z,98888.13
2019-04-07T00:49:37.573Z,98892.59
2019-04-07T00:50:41.748Z,98886.98
2019-04-07T00:51:46.461Z,98884.75
2019-04-07T00:52:53.277Z,98891.52
2019-04-07T00:53:57.537Z,98889.62
2019-04-07T00:55:02.308Z,98889.38
2019-04-07T00:56:06.722Z,98884.91
2019-04-07T00:57:11.018Z,98886.07
2019-04-07T00:58:15.736Z,98890.00
2019-04-07T00:59:19.984Z,98884.72
2019-04-07T01:00:25.934Z,98887.03
2019-04-07T01:01:30.555Z,98883.73
2019-04-07T01:02:34.690Z,98884.88
2019-04-07T01:03:39.155Z,98880.76
2019-04-07T01:04:43.896Z,98885.05
2019-04-07T01:05:48.681Z,98889.88
2019-04-07T01:06:53.705Z,98883.78
2019-04-07T01:07:58.411Z,98884.69
2019-04-07T01:09:04.541Z,98886.17
2019-04-07T01:10:09.672Z,98894.66
2019-04-07T01:11:13.930Z,98886.83
2019-04-07T01:12:19.293Z,98890.84
2019-04-07T01:13:24.001Z,98884.16
2019-04-07T01:14:29.056Z,98889.52
2019-04-07T01:15:33.213Z,98889.52
2019-04-07T01:16:37.477Z,98891.49
2019-04-07T01:17:42.340Z,98891.24
2019-04-07T01:18:46.860Z,98883.98
2019-04-07T01:19:50.973Z,98891.00
2019-04-07T01:20:55.239Z,98887.36
2019-04-07T01:21:59.900Z,98892.48
2019-04-07T01:23:05.532Z,98891.07
2019-04-07T01:24:09.903Z,98894.45
2019-04-07T01:25:14.079Z,98879.31
2019-04-07T01:26:18.540Z,98887.24
2019-04-07T01:27:22.811Z,98891.78
2019-04-07T01:28:27.477Z,98896.89
2019-04-07T01:29:32.128Z,98896.64
2019-04-07T01:30:37.084Z,98897.55
2019-04-07T01:31:41.323Z,98894.48
2019-04-07T01:32:45.581Z,98889.78
2019-04-07T01:33:49.781Z,98893.66
2019-04-07T01:34:53.953Z,98893.66
2019-04-07T01:35:58.314Z,98889.46
2019-04-07T01:37:02.559Z,98887.23
2019-04-07T01:38:07.200Z,98893.70
2019-04-07T01:39:12.975Z,98900.47
2019-04-07T01:40:17.706Z,98875.30
2019-04-07T01:41:24.198Z,98896.02
2019-04-07T01:42:45.642Z,98899.97
2019-04-07T01:43:51.703Z,98893.87
2019-04-07T01:45:13.810Z,98895.92
2019-04-07T01:46:35.718Z,98894.92
2019-04-07T01:47:47.641Z,98886.88
2019-04-07T01:49:10.117Z,98890.59
2019-04-07T01:50:16.623Z,98901.30
2019-04-07T01:51:22.436Z,98901.38
2019-04-07T01:52:28.465Z,98889.45
2019-04-07T01:53:50.042Z,98895.89
2019-04-07T01:55:04.888Z,98893.91
2019-04-07T01:56:10.814Z,98892.58
2019-04-07T01:57:33.803Z,98891.18
2019-04-07T01:58:42.847Z,98897.61
2019-04-07T02:00:04.736Z,98891.51
2019-04-07T02:01:26.292Z,98891.84
2019-04-07T02:02:47.846Z,98886.30
2019-04-07T02:03:59.386Z,98890.00
2019-04-07T02:05:25.419Z,98890.05
2019-04-07T02:06:47.730Z,98893.10
2019-04-07T02:08:02.855Z,98882.47
2019-04-07T02:09:15.098Z,98890.38
2019-04-07T02:10:25.146Z,98891.20
2019-04-07T02:11:47.895Z,98899.35
2019-04-07T02:12:56.652Z,98893.17
2019-04-07T02:14:17.206Z,98890.09
2019-04-07T02:15:22.832Z,98892.06
2019-04-07T02:16:45.301Z,98896.84
2019-04-07T02:17:51.541Z,98894.94
2019-04-07T02:19:09.974Z,98901.37
2019-04-07T02:20:54.387Z,98903.59
2019-04-07T02:22:00.394Z,98901.37
2019-04-07T02:23:06.375Z,98902.84
2019-04-07T02:24:13.040Z,98895.59
2019-04-07T02:25:19.805Z,98901.77
2019-04-07T02:26:35.090Z,98904.81
2019-04-07T02:27:57.057Z,98903.09
2019-04-07T02:29:19.280Z,98899.72
2019-04-07T02:30:41.638Z,98903.09
2019-04-07T02:31:47.552Z,98900.04
2019-04-07T02:33:09.234Z,98905.64
2019-04-07T02:34:21.997Z,98902.05
2019-04-07T02:35:35.043Z,98910.74
2019-04-07T02:36:46.955Z,98915.77
2019-04-07T02:37:52.984Z,98911.31
2019-04-07T02:38:58.786Z,98905.39
2019-04-07T02:40:06.308Z,98907.94
2019-04-07T02:41:24.467Z,98904.24
2019-04-07T02:42:36.595Z,98910.92
2019-04-07T02:43:45.333Z,98906.79
2019-04-07T02:45:10.757Z,98903.98
2019-04-07T02:46:17.123Z,98904.56
2019-04-07T02:47:23.431Z,98905.44
2019-04-07T02:48:48.833Z,98899.08
2019-04-07T02:50:01.667Z,98898.50
2019-04-07T02:51:22.931Z,98898.58
2019-04-07T02:52:45.280Z,98900.55
2019-04-07T02:53:55.266Z,98903.09
2019-04-07T02:55:04.526Z,98899.80
2019-04-07T02:56:29.861Z,98901.20
2019-04-07T02:57:36.006Z,98902.59
2019-04-07T02:58:47.833Z,98902.09
2019-04-07T02:59:54.344Z,98903.85
2019-04-07T03:01:05.912Z,98903.03
2019-04-07T03:02:29.192Z,98905.00
2019-04-07T03:03:35.154Z,98908.38
2019-04-07T03:04:41.629Z,98908.70
2019-04-07T03:05:47.706Z,98913.54
2019-04-07T03:06:54.740Z,98912.47
2019-04-07T03:08:07.793Z,98913.86
2019-04-07T03:09:15.390Z,98916.91
2019-04-07T03:10:21.643Z,98920.04
2019-04-07T03:11:27.744Z,98916.09
2019-04-07T03:12:37.236Z,98913.61
2019-04-07T03:13:46.482Z,98919.78
2019-04-07T03:15:11.138Z,98924.84
2019-04-07T03:16:17.318Z,98918.42
2019-04-07T03:17:29.804Z,98918.17
2019-04-07T03:18:42.458Z,98926.89
2019-04-07T03:19:52.037Z,98918.56
2019-04-07T03:21:10.213Z,98921.11
2019-04-07T03:22:25.719Z,98922.25
2019-04-07T03:23:40.418Z,98924.80
2019-04-07T03:24:46.277Z,98924.58
2019-04-07T03:26:08.432Z,98924.39
2019-04-07T03:27:14.391Z,98930.31
2019-04-07T03:28:35.637Z,98921.73
2019-04-07T03:29:45.391Z,98929.05
2019-04-07T03:31:07.792Z,98925.45
2019-04-07T03:32:31.149Z,98924.95
2019-04-07T03:33:55.002Z,98923.05
2019-04-07T03:35:20.097Z,98925.59
2019-04-07T03:36:29.147Z,98919.23
2019-04-07T03:37:38.731Z,98924.61
2019-04-07T03:38:55.876Z,98922.38
2019-04-07T03:40:10.365Z,98919.91
2019-04-07T03:41:25.740Z,98919.65
2019-04-07T03:42:47.955Z,98918.00
2019-04-07T03:43:53.722Z,98918.00
2019-04-07T03:45:11.843Z,98915.52
2019-04-07T03:46:26.957Z,98922.89
2019-04-07T03:47:47.838Z,98919.62
2019-04-07T03:48:59.236Z,98910.34
2019-04-07T03:50:23.119Z,98910.34
2019-04-07T03:51:36.423Z,98919.23
2019-04-07T03:52:42.888Z,98915.45
2019-04-07T03:54:04.000Z,98921.36
2019-04-07T03:55:26.105Z,98906.45
2019-04-07T03:56:31.927Z,98910.55
2019-04-07T03:57:37.831Z,98909.25
2019-04-07T03:58:50.702Z,98915.95
2019-04-07T04:00:13.056Z,98919.58
2019-04-07T04:01:35.775Z,98913.25
2019-04-07T04:02:44.382Z,98912.42
2019-04-07T04:04:02.353Z,98915.02
2019-04-07T04:05:27.356Z,98922.90
2019-04-07T04:06:49.838Z,98911.74
2019-04-07T04:08:06.178Z,98912.09
2019-04-07T04:09:12.115Z,98914.11
2019-04-07T04:10:21.202Z,98919.51
2019-04-07T04:11:30.261Z,98920.08
2019-04-07T04:12:49.019Z,98917.03
2019-04-07T04:14:08.029Z,98918.11
2019-04-07T04:15:15.089Z,98916.45
2019-04-07T04:16:20.127Z,98918.96
2019-04-07T04:17:25.115Z,98923.22
2019-04-07T04:18:29.440Z,98922.91
2019-04-07T04:19:33.728Z,98915.14
2019-04-07T04:20:38.800Z,98920.16
2019-04-07T04:21:44.290Z,98922.12
2019-04-07T04:22:48.737Z,98923.53
2019-04-07T04:23:53.080Z,98931.03
2019-04-07T04:24:57.637Z,98925.44
2019-04-07T04:26:02.500Z,98930.14
2019-04-07T04:27:06.900Z,98926.81
2019-04-07T04:28:12.037Z,98934.05
2019-04-07T04:29:17.035Z,98933.23
2019-04-07T04:30:21.605Z,98936.85
2019-04-07T04:31:27.370Z,98938.81
2019-04-07T04:32:31.620Z,98939.67
2019-04-07T04:33:35.819Z,98946.38
2019-04-07T04:34:41.002Z,98943.02
2019-04-07T04:35:46.003Z,98947.46
2019-04-07T04:36:50.373Z,98945.52
2019-04-07T04:37:55.526Z,98943.86
2019-04-07T04:39:00.661Z,98951.80
2019-04-07T04:40:07.304Z,98959.35
2019-04-07T04:41:11.707Z,98952.11
2019-04-07T04:42:16.185Z,98947.60
2019-04-07T04:43:20.395Z,98950.97
2019-04-07T04:44:24.684Z,98954.02
2019-04-07T04:45:29.590Z,98960.12
2019-04-07T04:46:34.452Z,98961.78
2019-04-07T04:47:39.308Z,98956.19
2019-04-07T04:48:43.646Z,98967.62
2019-04-07T04:49:48.368Z,98963.75
2019-04-07T04:50:53.019Z,98964.58
2019-04-07T04:51:58.291Z,98970.99
2019-04-07T04:53:02.720Z,98967.37
2019-04-07T04:54:07.272Z,98970.42
2019-04-07T04:55:11.687Z,98966.48
2019-04-07T04:56:16.787Z,98969.57
2019-04-07T04:57:21.762Z,98968.69
2019-04-07T04:58:26.924Z,98973.13
2019-04-07T04:59:31.797Z,98972.83
2019-04-07T05:00:36.331Z,98969.45
2019-04-07T05:01:40.611Z,98976.13
2019-04-07T05:02:45.627Z,98969.97
2019-04-07T05:03:52.375Z,98974.42
2019-04-07T05:04:57.421Z,98978.91
2019-04-07T05:06:02.314Z,98981.70
2019-04-07T05:07:07.779Z,98979.16
2019-04-07T05:08:12.763Z,98987.29
2019-04-07T05:09:17.909Z,98980.55
2019-04-07T05:10:22.312Z,98979.41
2019-04-07T05:11:26.792Z,98989.20
2019-04-07T05:12:31.350Z,98994.56
2019-04-07T05:13:35.782Z,98991.31
2019-04-07T05:14:40.168Z,98994.67
2019-04-07T05:15:44.595Z,98994.10
2019-04-07T05:16:49.142Z,98993.84
2019-04-07T05:17:53.859Z,98986.86
2019-04-07T05:18:58.490Z,98994.10
2019-04-07T05:20:03.360Z,98997.16
2019-04-07T05:21:07.675Z,98989.02
2019-04-07T05:22:12.531Z,98994.30
2019-04-07T05:23:17.492Z,98994.87
2019-04-07T05:24:22.290Z,98997.92
2019-04-07T05:25:26.465Z,99002.13
2019-04-07T05:26:31.206Z,98999.58
2019-04-07T05:27:35.422Z,98999.58
2019-04-07T05:28:39.645Z,99003.27
2019-04-07T05:29:44.601Z,99003.31
2019-04-07T05:30:48.983Z,99002.75
2019-04-07T05:31:55.788Z,99002.49
2019-04-07T05:32:59.916Z,99001.61
2019-04-07T05:34:04.491Z,99000.47
2019-04-07T05:35:08.918Z,99000.20
2019-04-07T05:36:13.214Z,99004.09
2019-04-07T05:37:17.677Z,98993.53
2019-04-07T05:38:22.349Z,98997.47
2019-04-07T05:39:27.223Z,98999.49
2019-04-07T05:40:31.972Z,99001.66
2019-04-07T05:41:36.333Z,98997.16
2019-04-07T05:42:40.619Z,98999.38
2019-04-07T05:43:44.795Z,99000.72
2019-04-07T05:44:49.037Z,99003.20
2019-04-07T05:45:54.313Z,99009.60
2019-04-07T05:46:58.492Z,99005.95
2019-04-07T05:48:03.238Z,99009.52
2019-04-07T05:49:07.666Z,99012.83
2019-04-07T05:50:12.211Z,99015.88
2019-04-07T05:51:16.571Z,98961.38
2019-04-07T05:52:20.831Z,99023.63
2019-04-07T05:53:26.613Z,99020.20
2019-04-07T05:54:30.807Z,99020.70
2019-04-07T05:55:35.027Z,99016.14
2019-04-07T05:56:39.316Z,99016.66
2019-04-07T05:57:44.220Z,99019.74
2019-04-07T05:58:49.418Z,99024.45
2019-04-07T05:59:57.484Z,99026.36
2019-04-07T06:01:01.867Z,99029.41
2019-04-07T06:02:06.830Z,99029.09
2019-04-07T06:03:11.236Z,99033.23
2019-04-07T06:04:18.307Z,99029.55
2019-04-07T06:05:21.317Z,99028.98
2019-04-07T06:06:25.940Z,99027.30
2019-04-07T06:07:31.548Z,99029.53
2019-04-07T06:08:39.176Z,99026.16
2019-04-07T06:09:42.593Z,99033.92
2019-04-07T06:10:46.819Z,99040.03
2019-04-07T06:11:51.101Z,99037.48
2019-04-07T06:12:57.373Z,99042.19
2019-04-07T06:14:01.882Z,99039.66
2019-04-07T06:15:06.875Z,99041.59
2019-04-07T06:16:10.973Z,99041.28
2019-04-07T06:17:15.411Z,99048.22
2019-04-07T06:18:20.026Z,99039.81
2019-04-07T06:19:24.979Z,99040.64
2019-04-07T06:20:30.311Z,99037.53
2019-04-07T06:21:34.848Z,99047.27
2019-04-07T06:22:39.044Z,99040.02
2019-04-07T06:23:43.294Z,99046.13
2019-04-07T06:24:48.000Z,99039.64
2019-04-07T06:25:55.584Z,99046.34
2019-04-07T06:26:58.942Z,99045.45
2019-04-07T06:28:03.359Z,99048.77
2019-04-07T06:29:07.640Z,99047.88
2019-04-07T06:30:13.958Z,99043.36
2019-04-07T06:31:18.373Z,99050.30
2019-04-07T06:32:22.685Z,99044.95
2019-04-07T06:33:27.520Z,99048.55
2019-04-07T06:34:31.831Z,99045.44
2019-04-07T06:35:36.571Z,99046.52
2019-04-07T06:36:40.839Z,99045.69
2019-04-07T06:37:45.400Z,99046.52
2019-04-07T06:38:51.808Z,99045.88
2019-04-07T06:39:55.792Z,99053.39
2019-04-07T06:41:01.842Z,99049.70
2019-04-07T06:42:05.974Z,99048.84
2019-04-07T06:43:10.601Z,99056.86
2019-04-07T06:44:18.914Z,99052.09
2019-04-07T06:45:25.422Z,99053.10
2019-04-07T06:46:33.890Z,99059.22
2019-04-07T06:47:43.314Z,99057.52
2019-04-07T06:48:55.162Z,99057.46
2019-04-07T06:50:05.625Z,99046.45
2019-04-07T06:51:24.037Z,99056.76
2019-04-07T06:52:46.613Z,99055.29
2019-04-07T06:54:02.301Z,99057.48
2019-04-07T06:55:27.652Z,99053.22
2019-04-07T06:56:35.354Z,99057.67
2019-04-07T06:57:53.769Z,99058.17
2019-04-07T06:59:02.419Z,99056.17
2019-04-07T07:00:11.823Z,99061.41
2019-04-07T07:01:17.638Z,99064.98
2019-04-07T07:02:23.984Z,99065.48
2019-04-07T07:03:39.130Z,99062.30
2019-04-07T07:05:01.450Z,99061.14
2019-04-07T07:06:08.450Z,99068.62
2019-04-07T07:07:16.771Z,99066.58
2019-04-07T07:08:24.718Z,99066.77
2019-04-07T07:09:30.700Z,99072.00
2019-04-07T07:10:38.992Z,99060.73
2019-04-07T07:11:45.169Z,99070.47
2019-04-07T07:12:53.472Z,99074.53
2019-04-07T07:14:03.086Z,99074.74
2019-04-07T07:15:12.158Z,99072.12
2019-04-07T07:16:21.874Z,99076.33
2019-04-07T07:17:42.666Z,99074.78
2019-04-07T07:18:48.783Z,99076.07
2019-04-07T07:20:01.377Z,99081.28
2019-04-07T07:21:05.257Z,99072.75
2019-04-07T07:22:15.609Z,99061.00
2019-04-07T07:23:28.984Z,99070.05
2019-04-07T07:24:33.792Z,99071.02
2019-04-07T07:25:38.029Z,99070.29
2019-04-07T07:26:42.880Z,99075.75
2019-04-07T07:27:47.795Z,99070.34
2019-04-07T07:28:53.004Z,99067.96
2019-04-07T07:29:57.783Z,99077.63
2019-04-07T07:31:02.262Z,99061.33
2019-04-07T07:32:06.482Z,99066.03
2019-04-07T07:33:11.177Z,99069.84
2019-04-07T07:34:15.679Z,99070.05
2019-04-07T07:35:20.552Z,99066.86
2019-04-07T07:36:26.358Z,99073.14
2019-04-07T07:37:31.108Z,99067.12
2019-04-07T07:38:35.908Z,99069.80
2019-04-07T07:39:42.600Z,99070.46
2019-04-07T07:40:47.700Z,99065.30
2019-04-07T07:41:53.049Z,99067.61
2019-04-07T07:42:59.234Z,99067.72
2019-04-07T07:44:04.919Z,99064.25
2019-04-07T07:45:12.733Z,99068.30
2019-04-07T07:46:18.189Z,99068.98
2019-04-07T07:47:22.603Z,99069.65
2019-04-07T07:48:28.309Z,99070.09
2019-04-07T07:49:36.106Z,99070.83
2019-04-07T07:50:40.687Z,99064.79
2019-04-07T07:51:47.522Z,99064.79
2019-04-07T07:52:53.403Z,99075.80
2019-04-07T07:54:00.884Z,99079.11
2019-04-07T07:55:06.942Z,99075.38
2019-04-07T07:56:13.547Z,99078.11
2019-04-07T07:57:21.130Z,99077.45
2019-04-07T07:58:27.947Z,99074.24
2019-04-07T07:59:33.520Z,99071.59
2019-04-07T08:00:39.830Z,99075.96
2019-04-07T08:01:46.231Z,99076.15
2019-04-07T08:02:50.906Z,99076.92
2019-04-07T08:03:55.762Z,99079.64
2019-04-07T08:05:00.646Z,99073.53
2019-04-07T08:06:08.218Z,99075.83
2019-04-07T08:07:13.534Z,99076.33
2019-04-07T08:08:17.897Z,99072.50
2019-04-07T08:09:25.210Z,99078.46
2019-04-07T08:10:29.058Z,99080.44
2019-04-07T08:11:34.387Z,99077.92
2019-04-07T08:12:38.949Z,99082.54
2019-04-07T08:13:44.950Z,99076.08
2019-04-07T08:14:52.177Z,99084.60
2019-04-07T08:15:57.102Z,99082.17
2019-04-07T08:17:03.405Z,99086.45
2019-04-07T08:18:08.389Z,99079.24
2019-04-07T08:19:14.565Z,99080.70
2019-04-07T08:20:19.602Z,99083.34
2019-04-07T08:21:23.742Z,99083.42
2019-04-07T08:22:33.841Z,99075.05
2019-04-07T08:23:34.120Z,99088.92
2019-04-07T08:24:38.701Z,99083.67
2019-04-07T08:25:44.474Z,99085.73
2019-04-07T08:26:48.858Z,99080.48
2019-04-07T08:27:53.210Z,99081.61
2019-04-07T08:28:57.395Z,99084.46
2019-04-07T08:30:01.712Z,99072.02
2019-04-07T08:31:06.598Z,99089.27
2019-04-07T08:32:11.087Z,99089.91
2019-04-07T08:33:15.880Z,99094.98
2019-04-07T08:34:20.344Z,99090.81
2019-04-07T08:35:24.686Z,99085.78
2019-04-07T08:36:29.135Z,99087.02
2019-04-07T08:37:34.088Z,99087.97
2019-04-07T08:38:38.453Z,99087.94
2019-04-07T08:39:43.208Z,99094.66
2019-04-07T08:40:47.892Z,99088.83
2019-04-07T08:41:52.952Z,99085.67
2019-04-07T08:42:57.328Z,99093.01
2019-04-07T08:44:01.745Z,99096.32
2019-04-07T08:45:06.300Z,99086.48
2019-04-07T08:46:11.021Z,99088.60
2019-04-07T08:47:20.813Z,99089.90
2019-04-07T08:48:21.675Z,99091.81
2019-04-07T08:49:25.863Z,99087.94
2019-04-07T08:50:30.975Z,99092.69
2019-04-07T08:51:35.171Z,99087.98
2019-04-07T08:52:42.690Z,99090.56
2019-04-07T08:53:46.374Z,99088.95
2019-04-07T08:54:52.418Z,99087.54
2019-04-07T08:55:56.977Z,99081.22
2019-04-07T08:57:01.255Z,99083.36
2019-04-07T08:58:06.593Z,99080.30
2019-04-07T08:59:13.886Z,99087.63
2019-04-07T09:00:21.396Z,99077.84
2019-04-07T09:01:28.703Z,99078.66
2019-04-07T09:02:32.222Z,99078.80
2019-04-07T09:03:36.529Z,99076.91
2019-04-07T09:04:41.339Z,99081.28
2019-04-07T09:05:45.563Z,99081.27
2019-04-07T09:06:50.291Z,99074.22
2019-04-07T09:07:55.044Z,99074.09
2019-04-07T09:09:00.384Z,99075.25
2019-04-07T09:10:07.268Z,99077.14
2019-04-07T09:11:20.039Z,99081.14
2019-04-07T09:12:22.891Z,99070.89
2019-04-07T09:13:31.634Z,99074.55
2019-04-07T09:14:37.835Z,99069.36
2019-04-07T09:15:59.996Z,99072.61
2019-04-07T09:17:12.663Z,99071.80
2019-04-07T09:18:33.652Z,99076.47
2019-04-07T09:19:42.004Z,99073.99
2019-04-07T09:20:49.318Z,99076.78
2019-04-07T09:21:57.943Z,99071.71
2019-04-07T09:23:19.043Z,99071.54
2019-04-07T09:24:30.615Z,99065.45
2019-04-07T09:25:35.831Z,99068.77
2019-04-07T09:26:48.554Z,99064.97
2019-04-07T09:27:55.021Z,99063.30
2019-04-07T09:29:05.175Z,99066.09
2019-04-07T09:30:11.281Z,99074.43
2019-04-07T09:31:19.861Z,99070.33
2019-04-07T09:32:28.981Z,99068.03
2019-04-07T09:33:40.687Z,99070.25
2019-04-07T09:34:54.027Z,99073.36
2019-04-07T09:36:06.941Z,99070.33
2019-04-07T09:37:28.852Z,99071.34
2019-04-07T09:38:43.402Z,99071.19
2019-04-07T09:40:01.031Z,99069.52
2019-04-07T09:41:12.094Z,99075.75
2019-04-07T09:42:33.689Z,99072.98
2019-04-07T09:43:55.119Z,99067.72
2019-04-07T09:45:07.422Z,99071.49
2019-04-07T09:46:18.012Z,99075.55
2019-04-07T09:47:32.490Z,99072.20
2019-04-07T09:48:40.243Z,99069.27
2019-04-07T09:50:02.877Z,99066.66
2019-04-07T09:51:15.380Z,99074.97
2019-04-07T09:52:33.918Z,99073.11
2019-04-07T09:53:50.739Z,99071.87
2019-04-07T09:54:57.337Z,99072.63
2019-04-07T09:56:03.789Z,99073.01
2019-04-07T09:57:23.553Z,99072.91
2019-04-07T09:58:33.167Z,99071.64
2019-04-07T09:59:50.781Z,99068.27
2019-04-07T10:01:08.004Z,99068.91
2019-04-07T10:02:18.514Z,99069.37
2019-04-07T10:03:29.279Z,99078.53
2019-04-07T10:04:39.680Z,99069.41
2019-04-07T10:05:57.943Z,99073.71
2019-04-07T10:07:09.467Z,99070.22
2019-04-07T10:08:30.310Z,99066.86
2019-04-07T10:10:04.579Z,99064.69
2019-04-07T10:11:05.316Z,99068.05
2019-04-07T10:12:17.267Z,99064.37
2019-04-07T10:13:26.113Z,99062.87
2019-04-07T10:14:51.280Z,99062.38
2019-04-07T10:16:13.218Z,99070.05
2019-04-07T10:17:28.963Z,99067.33
2019-04-07T10:18:38.339Z,99066.47
2019-04-07T10:19:44.659Z,99062.16
2019-04-07T10:21:08.825Z,99069.03
2019-04-07T10:22:21.185Z,99062.19
2019-04-07T10:23:27.146Z,99068.84
2019-04-07T10:24:39.404Z,99065.66
2019-04-07T10:26:00.467Z,99060.44
2019-04-07T10:27:10.786Z,99060.44
2019-04-07T10:28:19.454Z,99066.94
2019-04-07T10:29:28.542Z,99071.73
2019-04-07T10:30:49.201Z,99066.91
2019-04-07T10:32:11.427Z,99068.18
2019-04-07T10:33:31.845Z,99066.27
2019-04-07T10:34:40.793Z,99070.80
2019-04-07T10:36:02.963Z,99064.48
2019-04-07T10:37:12.266Z,99068.13
2019-04-07T10:38:30.336Z,99066.33
2019-04-07T10:39:42.173Z,99065.43
2019-04-07T10:40:57.567Z,99073.52
2019-04-07T10:42:15.057Z,99073.69
2019-04-07T10:43:24.028Z,99072.32
2019-04-07T10:44:42.336Z,99069.14
2019-04-07T10:45:48.334Z,99081.23
2019-04-07T10:46:56.816Z,99081.23
2019-04-07T10:48:14.513Z,99074.45
2019-04-07T10:49:27.330Z,99078.58
2019-04-07T10:50:45.137Z,99079.62
2019-04-07T10:52:06.699Z,99077.98
2019-04-07T10:53:18.043Z,99086.61
2019-04-07T10:54:27.056Z,99076.55
2019-04-07T10:55:49.507Z,99081.24
2019-04-07T10:56:56.311Z,99077.97
2019-04-07T10:58:20.853Z,99081.11
2019-04-07T10:59:39.046Z,99078.87
2019-04-07T11:00:48.799Z,99081.41
2019-04-07T11:02:10.277Z,99079.47
2019-04-07T11:03:19.575Z,99081.77
2019-04-07T11:04:41.690Z,99082.03
2019-04-07T11:05:53.713Z,99085.95
2019-04-07T11:07:17.447Z,99084.77
2019-04-07T11:08:37.774Z,99078.91
2019-04-07T11:09:43.961Z,99078.91
2019-04-07T11:11:06.257Z,99081.38
2019-04-07T11:12:18.183Z,99088.76
2019-04-07T11:13:24.000Z,99086.13
2019-04-07T11:14:33.084Z,99083.07
2019-04-07T11:15:54.146Z,99076.72
2019-04-07T11:17:06.425Z,99087.52
2019-04-07T11:18:12.416Z,99088.65
2019-04-07T11:19:36.147Z,99088.03
2019-04-07T11:20:54.433Z,99088.81
2019-04-07T11:22:03.026Z,99082.02
2019-04-07T11:23:08.845Z,99086.50
2019-04-07T11:24:31.594Z,99084.29
2019-04-07T11:25:40.353Z,99081.09
2019-04-07T11:27:01.747Z,99082.86
2019-04-07T11:28:17.750Z,99084.57
2019-04-07T11:29:23.993Z,99084.57
2019-04-07T11:30:29.767Z,99079.59
2019-04-07T11:31:48.371Z,99082.34
2019-04-07T11:33:09.505Z,99082.31
2019-04-07T11:34:15.978Z,99087.83
2019-04-07T11:35:22.221Z,99070.63
2019-04-07T11:36:28.790Z,99087.91
2019-04-07T11:37:53.939Z,99087.91
2019-04-07T11:39:08.993Z,99082.53
2019-04-07T11:40:41.971Z,99085.00
2019-04-07T11:41:57.416Z,99081.08
2019-04-07T11:43:03.382Z,99080.23
2019-04-07T11:44:11.901Z,99086.48
2019-04-07T11:45:20.780Z,99082.66
2019-04-07T11:46:37.053Z,99086.42
2019-04-07T11:47:45.987Z,99082.25
2019-04-07T11:48:52.063Z,99075.30
2019-04-07T11:50:01.420Z,99082.89
2019-04-07T11:51:09.629Z,99086.17
2019-04-07T11:52:14.851Z,99085.66
2019-04-07T11:53:27.450Z,99075.34
2019-04-07T11:54:33.884Z,99078.19
2019-04-07T11:55:46.474Z,99081.08
2019-04-07T11:57:08.694Z,99079.95
2019-04-07T11:58:22.289Z,99083.40
2019-04-07T11:59:23.899Z,99082.45
2019-04-07T12:00:30.225Z,99078.61
2019-04-07T12:01:39.452Z,99085.30
2019-04-07T12:02:45.551Z,99077.10
2019-04-07T12:04:09.313Z,99078.54
2019-04-07T12:05:27.332Z,99083.45
2019-04-07T12:06:33.278Z,99077.59
2019-04-07T12:07:57.187Z,99079.66
2019-04-07T12:09:18.176Z,99081.65
2019-04-07T12:10:30.117Z,99080.17
2019-04-07T12:11:52.625Z,99071.91
2019-04-07T12:13:04.796Z,99078.92
2019-04-07T12:14:17.833Z,99079.61
2019-04-07T12:15:28.662Z,99078.31
2019-04-07T12:16:49.301Z,99079.60
2019-04-07T12:17:55.660Z,99076.15
2019-04-07T12:19:08.748Z,99084.09
2019-04-07T12:20:33.788Z,99083.27
2019-04-07T12:21:51.219Z,99078.17
2019-04-07T12:23:09.327Z,99082.02
2019-04-07T12:24:23.870Z,99091.83
2019-04-07T12:25:33.369Z,99088.72
2019-04-07T12:26:56.614Z,99086.64
2019-04-07T12:28:05.498Z,99087.00
2019-04-07T12:29:20.755Z,99090.45
2019-04-07T12:30:28.453Z,99088.42
2019-04-07T12:32:57.637Z,99084.45
2019-04-07T12:34:09.453Z,99087.61
2019-04-07T12:35:32.973Z,99087.20
2019-04-07T12:36:41.990Z,99073.35
2019-04-07T12:37:54.189Z,99073.35
2019-04-07T12:39:02.893Z,99084.33
2019-04-07T12:40:20.796Z,99077.57
2019-04-07T12:41:31.830Z,99074.05
2019-04-07T12:42:54.584Z,99078.13
2019-04-07T12:44:19.113Z,99075.30
2019-04-07T12:45:35.799Z,99081.13
2019-04-07T12:46:41.841Z,99082.98
2019-04-07T12:47:47.598Z,99078.16
2019-04-07T12:49:05.392Z,99075.05
2019-04-07T12:50:21.971Z,99075.78
2019-04-07T12:51:44.160Z,99076.30
2019-04-07T12:53:06.881Z,99073.16
2019-04-07T12:54:25.443Z,99079.74
2019-04-07T12:55:37.236Z,99074.70
2019-04-07T12:56:45.645Z,99069.65
2019-04-07T12:57:56.578Z,99067.84
2019-04-07T12:59:02.335Z,99066.09
2019-04-07T13:00:09.094Z,99065.92
2019-04-07T13:01:32.823Z,99065.32
2019-04-07T13:02:41.420Z,99067.00
2019-04-07T13:03:55.942Z,99066.47
2019-04-07T13:05:03.811Z,99068.75
2019-04-07T13:06:25.478Z,99061.45
2019-04-07T13:07:37.901Z,99064.13
2019-04-07T13:09:01.279Z,99063.31
2019-04-07T13:10:11.910Z,99068.75
2019-04-07T13:11:33.992Z,99065.19
2019-04-07T13:12:37.629Z,99066.95
2019-04-07T13:13:43.899Z,99066.57
2019-04-07T13:14:52.475Z,99066.35
2019-04-07T13:16:01.515Z,99068.77
2019-04-07T13:17:13.775Z,99064.45
2019-04-07T13:18:31.406Z,99061.15
2019-04-07T13:19:41.830Z,99069.61
2019-04-07T13:20:53.311Z,99068.14
2019-04-07T13:22:08.127Z,99066.33
2019-04-07T13:23:13.965Z,99065.65
2019-04-07T13:24:33.677Z,99064.35
2019-04-07T13:25:55.018Z,99062.33
2019-04-07T13:27:03.107Z,99069.05
2019-04-07T13:28:10.962Z,99067.20
2019-04-07T13:29:19.449Z,99068.58
2019-04-07T13:30:40.957Z,99062.98
2019-04-07T13:31:50.303Z,99063.53
2019-04-07T13:33:01.653Z,99068.68
2019-04-07T13:34:24.496Z,99062.17
2019-04-07T13:35:42.100Z,99060.75
2019-04-07T13:36:52.966Z,99059.87
2019-04-07T13:38:01.542Z,99060.34
2019-04-07T13:39:09.935Z,99053.73